createdAt,value
2022-11-21T00:00:58.236Z,93414.31
2022-11-21T00:03:25.205Z,93410.72
2022-11-21T00:05:52.709Z,93416.81
2022-11-21T00:08:21.235Z,93413.69
2022-11-21T00:10:48.541Z,93408.19
2022-11-21T00:13:18.472Z,93413.81
2022-11-21T00:15:46.340Z,93413.66
2022-11-21T00:18:13.585Z,93406.50
2022-11-21T00:20:43.890Z,93401.03
2022-11-21T00:23:11.786Z,93399.63
2022-11-21T00:25:39.548Z,93399.94
2022-11-21T00:28:06.586Z,93396.81
2022-11-21T00:30:33.708Z,93398.38
2022-11-21T00:33:00.445Z,93394.75
2022-11-21T00:35:27.590Z,93391.03
2022-11-21T00:37:54.600Z,93384.78
2022-11-21T00:40:22.022Z,93387.91
2022-11-21T00:42:49.151Z,93399.16
2022-11-21T00:45:21.191Z,93387.75
2022-11-21T00:47:50.582Z,93389.94
2022-11-21T00:50:17.344Z,93384.16
2022-11-21T00:52:43.968Z,93390.84
2022-11-21T00:55:10.612Z,93387.72
2022-11-21T00:57:37.226Z,93385.06
2022-11-21T01:00:05.792Z,93378.50
2022-11-21T01:02:33.018Z,93383.50
2022-11-21T01:04:59.710Z,93385.50
2022-11-21T01:07:26.937Z,93386.78
2022-11-21T01:09:53.704Z,93383.03
2022-11-21T01:12:20.413Z,93372.13
2022-11-21T01:14:47.614Z,93374.78
2022-11-21T01:17:14.514Z,93367.91
2022-11-21T01:19:41.154Z,93354.66
2022-11-21T01:22:07.824Z,93358.09
2022-11-21T01:24:34.497Z,93346.22
2022-11-21T01:27:01.148Z,93357.44
2022-11-21T01:29:28.276Z,93352.00
2022-11-21T01:31:54.930Z,93350.13
2022-11-21T01:34:21.571Z,93351.22
2022-11-21T01:36:48.275Z,93350.75
2022-11-21T01:39:16.141Z,93359.47
2022-11-21T01:41:45.754Z,93345.44
2022-11-21T01:44:21.997Z,93344.34
2022-11-21T01:46:50.665Z,93341.22
2022-11-21T01:49:26.077Z,93341.38
2022-11-21T01:52:04.694Z,93344.34
2022-11-21T01:54:40.747Z,93331.41
2022-11-21T01:57:19.306Z,93334.03
2022-11-21T01:59:52.467Z,93323.13
2022-11-21T02:02:22.904Z,93320.97
2022-11-21T02:04:52.098Z,93314.72
2022-11-21T02:07:21.819Z,93305.97
2022-11-21T02:09:54.201Z,93318.31
2022-11-21T02:12:56.235Z,93313.94
2022-11-21T02:15:25.858Z,93315.19
2022-11-21T02:17:53.081Z,93317.06
2022-11-21T02:20:22.829Z,93321.28
2022-11-21T02:22:53.144Z,93324.69
2022-11-21T02:25:28.252Z,93318.63
2022-11-21T02:28:05.396Z,93315.97
2022-11-21T02:30:35.489Z,93315.31
2022-11-21T02:33:02.476Z,93318.88
2022-11-21T02:35:29.344Z,93316.53
2022-11-21T02:38:14.436Z,93322.47
2022-11-21T02:40:46.025Z,93320.59
2022-11-21T02:43:28.474Z,93314.94
2022-11-21T02:45:55.213Z,93315.06
2022-11-21T02:48:22.392Z,93315.69
2022-11-21T02:50:49.284Z,93310.06
2022-11-21T02:53:18.829Z,93303.03
2022-11-21T02:55:45.784Z,93297.72
2022-11-21T02:58:12.863Z,93295.38
2022-11-21T03:00:41.770Z,93298.63
2022-11-21T03:03:09.403Z,93291.78
2022-11-21T03:05:37.197Z,93282.72
2022-11-21T03:08:05.238Z,93286.72
2022-11-21T03:10:32.897Z,93278.28
2022-11-21T03:13:02.844Z,93277.50
2022-11-21T03:15:33.145Z,93279.78
2022-11-21T03:18:02.717Z,93281.47
2022-11-21T03:20:34.516Z,93276.78
2022-11-21T03:23:01.578Z,93277.84
2022-11-21T03:25:28.353Z,93291.56
2022-11-21T03:27:55.354Z,93285.19
2022-11-21T03:30:24.079Z,93289.28
2022-11-21T03:32:50.964Z,93281.22
2022-11-21T03:35:17.721Z,93279.97
2022-11-21T03:37:44.444Z,93276.34
2022-11-21T03:40:11.932Z,93279.78
2022-11-21T03:42:38.632Z,93276.66
2022-11-21T03:45:05.933Z,93279.19
2022-11-21T03:47:32.813Z,93272.16
2022-11-21T03:49:59.452Z,93280.75
2022-11-21T03:52:26.100Z,93271.13
2022-11-21T03:54:52.810Z,93273.31
2022-11-21T03:57:19.492Z,93271.75
2022-11-21T03:59:46.194Z,93269.88
2022-11-21T04:02:12.949Z,93277.03
2022-11-21T04:04:39.614Z,93281.06
2022-11-21T04:07:06.288Z,93282.03
2022-11-21T04:09:32.976Z,93275.00
2022-11-21T04:12:01.691Z,93267.69
2022-11-21T04:14:31.725Z,93264.56
2022-11-21T04:16:58.354Z,93269.38
2022-11-21T04:19:25.057Z,93252.25
2022-11-21T04:21:51.717Z,93252.72
2022-11-21T04:24:18.391Z,93256.25
2022-11-21T04:26:44.980Z,93260.78
2022-11-21T04:29:11.611Z,93259.09
2022-11-21T04:31:38.253Z,93258.19
2022-11-21T04:34:04.927Z,93254.28
2022-11-21T04:36:31.855Z,93251.16
2022-11-21T04:38:58.505Z,93244.16
2022-11-21T04:41:25.155Z,93239.94
2022-11-21T04:43:51.761Z,93241.81
2022-11-21T04:46:18.422Z,93249.16
2022-11-21T04:48:45.052Z,93240.91
2022-11-21T04:51:11.759Z,93234.97
2022-11-21T04:53:42.755Z,93237.16
2022-11-21T04:56:10.552Z,93241.06
2022-11-21T04:58:37.281Z,93245.13
2022-11-21T05:01:08.851Z,93242.34
2022-11-21T05:03:36.295Z,93241.44
2022-11-21T05:06:03.374Z,93246.09
2022-11-21T05:08:30.025Z,93243.16
2022-11-21T05:11:15.347Z,93243.31
2022-11-21T05:13:41.982Z,93236.81
2022-11-21T05:16:08.702Z,93237.44
2022-11-21T05:18:35.360Z,93241.03
2022-11-21T05:21:03.098Z,93244.31
2022-11-21T05:23:29.885Z,93242.63
2022-11-21T05:25:56.711Z,93239.03
2022-11-21T05:28:23.394Z,93237.66
2022-11-21T05:30:50.052Z,93241.84
2022-11-21T05:33:17.127Z,93241.56
2022-11-21T05:35:44.029Z,93241.25
2022-11-21T05:38:11.163Z,93242.47
2022-11-21T05:40:37.958Z,93238.13
2022-11-21T05:43:23.228Z,93246.72
2022-11-21T05:45:50.742Z,93246.41
2022-11-21T05:48:18.259Z,93243.75
2022-11-21T05:50:48.857Z,93239.53
2022-11-21T05:53:16.526Z,93245.94
2022-11-21T05:55:43.432Z,93237.97
2022-11-21T05:58:10.982Z,93241.41
2022-11-21T06:00:38.400Z,93245.63
2022-11-21T06:03:25.187Z,93249.06
2022-11-21T06:05:52.004Z,93247.19
2022-11-21T06:08:18.904Z,93243.44
2022-11-21T06:10:45.639Z,93255.91
2022-11-21T06:13:24.338Z,93257.63
2022-11-21T06:15:58.957Z,93252.66
2022-11-21T06:18:26.673Z,93252.19
2022-11-21T06:20:53.707Z,93244.53
2022-11-21T06:23:20.412Z,93247.00
2022-11-21T06:25:47.059Z,93252.94
2022-11-21T06:28:13.677Z,93259.19
2022-11-21T06:30:40.384Z,93252.19
2022-11-21T06:33:07.466Z,93249.84
2022-11-21T06:35:38.043Z,93253.25
2022-11-21T06:38:04.867Z,93255.44
2022-11-21T06:40:31.524Z,93264.34
2022-11-21T06:42:58.201Z,93260.13
2022-11-21T06:45:24.869Z,93256.88
2022-11-21T06:47:51.522Z,93255.91
2022-11-21T06:50:18.338Z,93266.69
2022-11-21T06:52:44.958Z,93269.03
2022-11-21T06:55:11.966Z,93276.50
2022-11-21T06:57:38.565Z,93272.91
2022-11-21T07:00:06.657Z,93281.63
2022-11-21T07:02:33.347Z,93285.06
2022-11-21T07:04:59.981Z,93281.47
2022-11-21T07:07:26.634Z,93279.91
2022-11-21T07:09:53.325Z,93291.00
2022-11-21T07:12:46.090Z,93285.69
2022-11-21T07:15:12.677Z,93286.00
2022-11-21T07:17:39.335Z,93283.97
2022-11-21T07:20:06.631Z,93291.91
2022-11-21T07:22:33.253Z,93279.56
2022-11-21T07:24:59.890Z,93285.53
2022-11-21T07:27:26.549Z,93297.81
2022-11-21T07:29:53.232Z,93297.03
2022-11-21T07:32:19.927Z,93300.34
2022-11-21T07:34:46.598Z,93285.69
2022-11-21T07:37:13.213Z,93291.31
2022-11-21T07:39:39.937Z,93276.38
2022-11-21T07:42:06.589Z,93290.06
2022-11-21T07:44:36.277Z,93286.63
2022-11-21T07:47:02.907Z,93288.38
2022-11-21T07:49:29.761Z,93290.88
2022-11-21T07:51:56.632Z,93282.00
2022-11-21T07:54:23.280Z,93300.53
2022-11-21T07:56:49.938Z,93266.25
2022-11-21T07:59:19.233Z,93305.41
2022-11-21T08:01:46.010Z,93273.09
2022-11-21T08:04:12.751Z,93305.25
2022-11-21T08:06:39.388Z,93279.44
2022-11-21T08:09:05.997Z,93292.91
2022-11-21T08:11:32.717Z,93280.91
2022-11-21T08:13:59.698Z,93286.50
2022-11-21T08:16:28.191Z,93297.28
2022-11-21T08:18:54.933Z,93287.63
2022-11-21T08:21:21.625Z,93301.19
2022-11-21T08:23:48.806Z,93304.16
2022-11-21T08:26:15.483Z,93298.38
2022-11-21T08:28:42.154Z,93296.19
2022-11-21T08:31:08.847Z,93300.72
2022-11-21T08:33:35.664Z,93304.78
2022-11-21T08:36:06.202Z,93307.72
2022-11-21T08:38:33.570Z,93294.31
2022-11-21T08:41:18.895Z,93302.44
2022-11-21T08:43:45.742Z,93306.00
2022-11-21T08:46:12.464Z,93313.63
2022-11-21T08:48:39.103Z,93311.91
2022-11-21T08:51:05.751Z,93317.38
2022-11-21T08:53:32.361Z,93308.84
2022-11-21T08:56:03.799Z,93315.38
2022-11-21T08:58:31.145Z,93305.69
2022-11-21T09:00:59.276Z,93301.31
2022-11-21T09:03:30.856Z,93304.88
2022-11-21T09:05:58.704Z,93302.97
2022-11-21T09:08:25.706Z,93309.66
2022-11-21T09:10:52.403Z,93306.25
2022-11-21T09:13:19.121Z,93306.41
2022-11-21T09:16:04.443Z,93305.31
2022-11-21T09:18:31.071Z,93300.00
2022-11-21T09:20:58.999Z,93300.63
2022-11-21T09:23:25.829Z,93304.84
2022-11-21T09:25:52.538Z,93295.16
2022-11-21T09:28:19.194Z,93297.94
2022-11-21T09:30:46.311Z,93298.28
2022-11-21T09:33:15.214Z,93296.81
2022-11-21T09:35:41.896Z,93300.72
2022-11-21T09:38:08.972Z,93296.03
2022-11-21T09:40:36.149Z,93290.53
2022-11-21T09:43:27.877Z,93284.53
2022-11-21T09:46:08.041Z,93288.16
2022-11-21T09:48:58.860Z,93293.25
2022-11-21T09:51:29.778Z,93279.41
2022-11-21T09:53:59.323Z,93280.31
2022-11-21T09:56:29.134Z,93281.81
2022-11-21T09:58:55.699Z,93279.13
2022-11-21T10:01:22.427Z,93271.03
2022-11-21T10:03:52.306Z,93272.66
2022-11-21T10:06:22.035Z,93276.00
2022-11-21T10:09:19.391Z,93282.50
2022-11-21T10:12:22.301Z,93273.88
2022-11-21T10:15:01.912Z,93266.53
2022-11-21T10:18:06.263Z,93273.78
2022-11-21T10:20:41.951Z,93268.22
2022-11-21T10:23:32.194Z,93258.38
2022-11-21T10:26:20.665Z,93246.94
2022-11-21T10:28:56.402Z,93253.16
2022-11-21T10:31:23.120Z,93239.91
2022-11-21T10:33:52.427Z,93235.09
2022-11-21T10:36:37.517Z,93232.31
2022-11-21T10:39:35.934Z,93232.13
2022-11-21T10:42:35.224Z,93227.41
2022-11-21T10:45:19.893Z,93220.13
2022-11-21T10:47:50.176Z,93209.88
2022-11-21T10:50:32.010Z,93213.53
2022-11-21T10:53:24.242Z,93201.31
2022-11-21T10:56:10.558Z,93195.56
2022-11-21T10:58:44.054Z,93190.88
2022-11-21T11:01:19.932Z,93189.78
2022-11-21T11:04:06.903Z,93181.78
2022-11-21T11:06:33.599Z,93185.66
2022-11-21T11:09:00.233Z,93185.66
2022-11-21T11:11:26.962Z,93177.88
2022-11-21T11:14:04.007Z,93180.84
2022-11-21T11:16:40.155Z,93176.63
2022-11-21T11:19:35.403Z,93183.47
2022-11-21T11:22:27.438Z,93167.00
2022-11-21T11:24:57.608Z,93166.00
2022-11-21T11:27:29.158Z,93160.19
2022-11-21T11:29:56.186Z,93157.72
2022-11-21T11:32:23.647Z,93158.19
2022-11-21T11:35:00.423Z,93159.75
2022-11-21T11:37:41.872Z,93150.31
2022-11-21T11:40:18.839Z,93141.16
2022-11-21T11:43:41.477Z,93143.19
2022-11-21T11:46:53.609Z,93132.47
2022-11-21T11:49:52.907Z,93128.94
2022-11-21T11:52:24.508Z,93123.03
2022-11-21T11:55:01.270Z,93120.38
2022-11-21T11:57:31.541Z,93111.78
2022-11-21T12:00:19.414Z,93105.00
2022-11-21T12:03:00.703Z,93101.38
2022-11-21T12:05:30.270Z,93105.22
2022-11-21T12:08:40.888Z,93095.44
2022-11-21T12:11:52.136Z,93094.59
2022-11-21T12:14:57.622Z,93096.69
2022-11-21T12:17:31.124Z,93085.13
2022-11-21T12:19:59.517Z,93079.28
2022-11-21T12:22:26.182Z,93072.59
2022-11-21T12:24:53.409Z,93058.66
2022-11-21T12:27:32.873Z,93056.75
2022-11-21T12:30:14.981Z,93051.75
2022-11-21T12:33:06.628Z,93045.09
2022-11-21T12:36:16.613Z,93046.47
2022-11-21T12:39:09.162Z,93041.72
2022-11-21T12:42:15.748Z,93033.84
2022-11-21T12:44:54.520Z,93039.09
2022-11-21T12:47:56.352Z,93030.72
2022-11-21T12:51:06.301Z,93030.25
2022-11-21T12:54:04.645Z,93022.00
2022-11-21T12:57:00.518Z,93012.97
2022-11-21T12:59:29.780Z,93011.56
2022-11-21T13:02:27.777Z,93006.78
2022-11-21T13:04:57.361Z,92999.91
2022-11-21T13:07:29.495Z,92999.34
2022-11-21T13:09:58.760Z,92993.91
2022-11-21T13:12:40.267Z,92998.34
2022-11-21T13:15:10.169Z,92996.88
2022-11-21T13:17:52.426Z,93000.63
2022-11-21T13:20:31.762Z,92996.38
2022-11-21T13:23:06.448Z,92984.59
2022-11-21T13:25:33.154Z,92981.47
2022-11-21T13:28:18.308Z,92967.72
2022-11-21T13:30:55.892Z,92958.53
2022-11-21T13:33:34.744Z,92955.69
2022-11-21T13:36:11.093Z,92932.75
2022-11-21T13:38:53.142Z,92932.69
2022-11-21T13:41:53.903Z,92933.94
2022-11-21T13:44:35.765Z,92929.94
2022-11-21T13:47:12.332Z,92930.66
2022-11-21T13:50:10.205Z,92919.44
2022-11-21T13:52:49.605Z,92920.13
2022-11-21T13:55:38.497Z,92913.19
2022-11-21T13:58:19.365Z,92908.56
2022-11-21T14:01:04.360Z,92904.34
2022-11-21T14:03:30.995Z,92906.25
2022-11-21T14:06:16.268Z,92899.94
2022-11-21T14:08:43.944Z,92897.06
2022-11-21T14:11:22.383Z,92893.31
2022-11-21T14:13:50.119Z,92888.34
2022-11-21T14:16:23.266Z,92891.94
2022-11-21T14:18:50.818Z,92888.44
2022-11-21T14:21:27.986Z,92886.06
2022-11-21T14:23:58.543Z,92876.19
2022-11-21T14:26:25.701Z,92880.00
2022-11-21T14:28:52.598Z,92882.34
2022-11-21T14:31:19.367Z,92882.28
2022-11-21T14:33:47.688Z,92878.09
2022-11-21T14:36:22.098Z,92877.56
2022-11-21T14:39:13.764Z,92867.91
2022-11-21T14:41:39.771Z,92862.16
2022-11-21T14:44:16.209Z,92859.13
2022-11-21T14:46:44.059Z,92850.16
2022-11-21T14:49:16.693Z,92856.16
2022-11-21T14:51:45.518Z,92857.19
2022-11-21T14:54:16.809Z,92859.31
2022-11-21T14:56:47.077Z,92841.59
2022-11-21T14:59:43.138Z,92835.75
2022-11-21T15:02:22.948Z,92834.09
2022-11-21T15:04:51.169Z,92836.63
2022-11-21T15:07:26.958Z,92832.09
2022-11-21T15:13:10.014Z,92814.16
2022-11-21T15:15:42.027Z,92803.28
2022-11-21T15:18:27.531Z,92804.84
2022-11-21T15:21:01.622Z,92804.22
2022-11-21T15:23:34.084Z,92805.00
2022-11-21T15:26:01.831Z,92795.28
2022-11-21T15:28:29.485Z,92789.72
2022-11-21T15:31:16.752Z,92782.31
2022-11-21T15:37:12.290Z,92765.50
2022-11-21T15:39:48.004Z,92753.00
2022-11-21T15:42:33.369Z,92750.66
2022-11-21T15:45:26.147Z,92751.88
2022-11-21T15:47:53.041Z,92748.31
2022-11-21T15:50:23.273Z,92748.00
2022-11-21T15:52:51.625Z,92753.19
2022-11-21T15:55:25.389Z,92743.03
2022-11-21T15:57:13.219Z,92781.78
2022-11-21T15:57:52.014Z,92735.72
2022-11-21T16:00:18.829Z,92725.72
2022-11-21T16:02:45.571Z,92719.97
2022-11-21T16:05:14.193Z,92713.00
2022-11-21T16:07:41.844Z,92717.44
2022-11-21T16:10:17.196Z,92707.00
2022-11-21T16:12:48.381Z,92700.47
2022-11-21T16:15:15.243Z,92705.22
2022-11-21T16:17:41.935Z,92690.72
2022-11-21T16:20:09.067Z,92688.72
2022-11-21T16:22:35.684Z,92698.56
2022-11-21T16:25:02.342Z,92697.66
2022-11-21T16:27:29.502Z,92691.59
2022-11-21T16:29:56.148Z,92681.63
2022-11-21T16:32:25.665Z,92681.50
2022-11-21T16:34:52.511Z,92674.72
2022-11-21T16:37:19.209Z,92669.97
2022-11-21T16:39:51.823Z,92666.09
2022-11-21T16:42:19.479Z,92664.56
2022-11-21T16:44:46.103Z,92653.69
2022-11-21T16:47:14.009Z,92653.22
2022-11-21T16:49:44.989Z,92636.16
2022-11-21T16:52:11.734Z,92633.03
2022-11-21T16:54:38.438Z,92624.22
2022-11-21T16:57:05.338Z,92624.41
2022-11-21T16:59:32.653Z,92613.56
2022-11-21T17:01:59.672Z,92600.38
2022-11-21T17:04:26.283Z,92613.84
2022-11-21T17:06:53.338Z,92604.78
2022-11-21T17:09:20.028Z,92607.91
2022-11-21T17:11:46.873Z,92598.59
2022-11-21T17:14:13.801Z,92596.13
2022-11-21T17:16:41.719Z,92583.06
2022-11-21T17:19:11.575Z,92586.03
2022-11-21T17:21:38.313Z,92587.13
2022-11-21T17:24:05.135Z,92590.25
2022-11-21T17:26:31.814Z,92579.19
2022-11-21T17:29:03.660Z,92582.38
2022-11-21T17:31:30.972Z,92567.00
2022-11-21T17:33:59.041Z,92571.06
2022-11-21T17:36:27.677Z,92561.56
2022-11-21T17:38:54.563Z,92556.47
2022-11-21T17:41:23.516Z,92558.09
2022-11-21T17:43:54.040Z,92559.06
2022-11-21T17:46:20.850Z,92565.59
2022-11-21T17:48:54.974Z,92562.44
2022-11-21T17:51:29.111Z,92562.88
2022-11-21T17:53:56.162Z,92562.75
2022-11-21T17:56:25.153Z,92564.75
2022-11-21T17:58:52.485Z,92567.84
2022-11-21T18:01:19.841Z,92562.22
2022-11-21T18:03:47.689Z,92559.91
2022-11-21T18:06:16.644Z,92558.16
2022-11-21T18:08:46.066Z,92557.69
2022-11-21T18:11:18.312Z,92560.47
2022-11-21T18:13:45.834Z,92565.00
2022-11-21T18:16:15.466Z,92555.19
2022-11-21T18:18:42.446Z,92557.63
2022-11-21T18:21:14.756Z,92550.94
2022-11-21T18:23:42.060Z,92550.03
2022-11-21T18:26:13.054Z,92547.38
2022-11-21T18:28:40.257Z,92536.66
2022-11-21T18:31:12.426Z,92528.56
2022-11-21T18:33:39.830Z,92529.22
2022-11-21T18:36:07.924Z,92524.34
2022-11-21T18:38:48.757Z,92525.47
2022-11-21T18:41:19.413Z,92523.28
2022-11-21T18:43:54.613Z,92516.97
2022-11-21T18:46:22.982Z,92515.00
2022-11-21T18:49:04.669Z,92508.03
2022-11-21T18:51:32.939Z,92501.84
2022-11-21T18:54:04.301Z,92493.22
2022-11-21T18:56:31.192Z,92481.03
2022-11-21T18:58:59.024Z,92482.75
2022-11-21T19:01:28.725Z,92472.69
2022-11-21T19:03:56.326Z,92478.31
2022-11-21T19:06:24.606Z,92475.41
2022-11-21T19:08:53.421Z,92475.06
2022-11-21T19:11:21.923Z,92468.69
2022-11-21T19:13:48.957Z,92477.06
2022-11-21T19:16:18.412Z,92470.38
2022-11-21T19:18:55.320Z,92480.19
2022-11-21T19:21:35.819Z,92461.97
2022-11-21T19:24:02.560Z,92466.63
2022-11-21T19:26:31.163Z,92470.75
2022-11-21T19:28:58.817Z,92468.63
2022-11-21T19:31:25.629Z,92462.41
2022-11-21T19:33:52.280Z,92452.81
2022-11-21T19:36:21.073Z,92452.94
2022-11-21T19:38:50.868Z,92453.56
2022-11-21T19:41:22.110Z,92442.13
2022-11-21T19:43:54.110Z,92447.88
2022-11-21T19:46:23.140Z,92442.91
2022-11-21T19:48:51.529Z,92436.81
2022-11-21T19:51:20.147Z,92437.59
2022-11-21T19:53:46.874Z,92433.72
2022-11-21T19:56:18.727Z,92440.34
2022-11-21T19:58:46.361Z,92438.47
2022-11-21T20:01:15.808Z,92430.88
2022-11-21T20:03:46.347Z,92418.22
2022-11-21T20:06:25.105Z,92412.91
2022-11-21T20:08:56.756Z,92413.06
2022-11-21T20:11:24.487Z,92410.34
2022-11-21T20:13:51.548Z,92408.78
2022-11-21T20:16:22.781Z,92402.72
2022-11-21T20:18:50.628Z,92394.91
2022-11-21T20:21:18.363Z,92398.97
2022-11-21T20:23:46.322Z,92412.47
2022-11-21T20:26:14.036Z,92406.50
2022-11-21T20:28:40.860Z,92407.72
2022-11-21T20:31:12.351Z,92406.63
2022-11-21T20:33:42.334Z,92409.00
2022-11-21T20:36:16.210Z,92409.66
2022-11-21T20:38:43.863Z,92414.09
2022-11-21T20:41:10.479Z,92415.34
2022-11-21T20:44:14.279Z,92408.41
2022-11-21T20:46:23.924Z,92404.28
2022-11-21T20:48:50.657Z,92411.34
2022-11-21T20:54:04.635Z,92410.47
2022-11-21T20:56:36.138Z,92410.94
2022-11-21T20:59:03.948Z,92404.22
2022-11-21T21:01:31.960Z,92400.59
2022-11-21T21:03:58.620Z,92406.75
2022-11-21T21:06:25.834Z,92397.50
2022-11-21T21:08:52.798Z,92404.75
2022-11-21T21:11:49.660Z,92399.59
2022-11-21T21:14:08.026Z,92399.47
2022-11-21T21:16:34.643Z,92398.16
2022-11-21T21:19:01.315Z,92397.38
2022-11-21T21:21:30.863Z,92400.78
2022-11-21T21:24:08.579Z,92409.63
2022-11-21T21:26:42.498Z,92414.38
2022-11-21T21:29:11.927Z,92405.13
2022-11-21T21:31:40.235Z,92401.50
2022-11-21T21:34:10.146Z,92407.69
2022-11-21T21:36:36.868Z,92406.59
2022-11-21T21:39:04.061Z,92409.00
2022-11-21T21:41:31.708Z,92406.34
2022-11-21T21:43:58.541Z,92404.81
2022-11-21T21:46:27.157Z,92400.63
2022-11-21T21:48:56.200Z,92401.63
2022-11-21T21:51:31.357Z,92399.75
2022-11-21T21:53:59.078Z,92400.84
2022-11-21T21:56:27.926Z,92395.88
2022-11-21T21:58:55.780Z,92392.00
2022-11-21T22:01:27.759Z,92395.09
2022-11-21T22:03:56.890Z,92399.63
2022-11-21T22:06:23.795Z,92403.19
2022-11-21T22:08:51.569Z,92390.72
2022-11-21T22:11:22.482Z,92386.84
2022-11-21T22:13:57.717Z,92378.56
2022-11-21T22:16:24.798Z,92375.56
2022-11-21T22:18:51.911Z,92378.56
2022-11-21T22:21:19.520Z,92378.44
2022-11-21T22:24:09.807Z,92384.16
2022-11-21T22:26:34.000Z,92391.44
2022-11-21T22:29:00.737Z,92387.09
2022-11-21T22:31:30.560Z,92387.09
2022-11-21T22:33:57.760Z,92386.84
2022-11-21T22:36:24.817Z,92381.13
2022-11-21T22:38:56.054Z,92388.09
2022-11-21T22:41:25.594Z,92376.31
2022-11-21T22:43:59.589Z,92372.44
2022-11-21T22:46:28.037Z,92379.63
2022-11-21T22:48:55.752Z,92380.06
2022-11-21T22:51:25.526Z,92376.97
2022-11-21T22:53:52.810Z,92379.28
2022-11-21T22:56:22.337Z,92384.72
2022-11-21T22:58:50.589Z,92385.34
2022-11-21T23:01:20.321Z,92378.50
2022-11-21T23:03:47.661Z,92386.34
2022-11-21T23:06:18.942Z,92388.00
2022-11-21T23:08:46.943Z,92389.31
2022-11-21T23:11:16.027Z,92384.28
2022-11-21T23:13:45.151Z,92370.38
2022-11-21T23:16:13.060Z,92381.41
2022-11-21T23:18:40.610Z,92373.03
2022-11-21T23:21:08.134Z,92368.75
2022-11-21T23:23:35.793Z,92367.41
2022-11-21T23:26:03.003Z,92369.59
2022-11-21T23:28:30.912Z,92375.03
2022-11-21T23:30:57.936Z,92370.81
2022-11-21T23:33:24.648Z,92378.75
2022-11-21T23:35:51.405Z,92370.81
2022-11-21T23:38:19.286Z,92364.31
2022-11-21T23:40:47.913Z,92362.09
2022-11-21T23:43:16.362Z,92356.47
2022-11-21T23:45:43.593Z,92351.09
2022-11-21T23:48:10.324Z,92343.91
2022-11-21T23:50:37.286Z,92343.47
2022-11-21T23:53:04.175Z,92343.22
2022-11-21T23:55:31.114Z,92343.88
2022-11-21T23:57:59.287Z,92347.63
